Time;durP1;ratioP1;P1;durP2;ratioP2;P2;SDS_P1;SDS_P2;PMS_P1;PMS_P2;Temp;Humidity;BMP_temperature;BMP_pressure;BME280_temperature;BME280_humidity;BME280_pressure;Samples;Min_cycle;Max_cycle;Signal;HPM_P1;HPM_P2
2021/05/03 00:00:18;;;;;;;7.90;5.85;;;;;;;6.05;82.13;99477.47;5099237;28;20048;-51
2021/05/03 00:03:05;;;;;;;9.10;5.50;;;;;;;6.01;82.30;99475.75;5098668;28;20112;-52
2021/05/03 00:05:31;;;;;;;6.97;5.13;;;;;;;6.03;82.17;99485.28;5098645;28;20055;-52
2021/05/03 00:07:57;;;;;;;9.05;6.20;;;;;;;6.01;82.13;99484.44;5098461;28;20043;-51
2021/05/03 00:10:23;;;;;;;9.55;5.50;;;;;;;6.01;82.10;99487.06;5099272;28;20047;-52
2021/05/03 00:12:48;;;;;;;9.02;5.88;;;;;;;5.95;82.88;99483.66;5098248;28;20352;-51
2021/05/03 00:15:15;;;;;;;11.40;6.85;;;;;;;6.01;82.53;99487.06;5098220;28;20044;-51
2021/05/03 00:17:40;;;;;;;10.75;6.07;;;;;;;6.00;82.46;99490.50;5097288;28;20040;-51
2021/05/03 00:20:07;;;;;;;9.90;5.65;;;;;;;6.04;82.26;99488.72;5098690;28;20143;-51
2021/05/03 00:22:33;;;;;;;11.75;7.40;;;;;;;5.96;82.75;99498.38;5097896;28;20055;-52
2021/05/03 00:24:58;;;;;;;11.38;6.15;;;;;;;5.96;82.58;99498.38;5098236;28;20048;-51
2021/05/03 00:27:24;;;;;;;10.50;5.57;;;;;;;5.98;82.67;99494.88;5098213;28;20498;-51
2021/05/03 00:29:50;;;;;;;9.13;5.97;;;;;;;5.99;82.28;99493.13;5098109;28;20040;-51
2021/05/03 00:32:16;;;;;;;6.60;4.97;;;;;;;6.06;81.88;99493.03;5098089;28;20119;-51
2021/05/03 00:34:42;;;;;;;7.40;5.13;;;;;;;5.99;82.25;99500.94;5097733;28;20048;-51
2021/05/03 00:37:07;;;;;;;6.80;4.93;;;;;;;5.95;82.17;99500.13;5096944;28;20062;-51
2021/05/03 00:39:33;;;;;;;6.93;4.75;;;;;;;5.94;81.94;99500.97;5097737;28;20040;-51
2021/05/03 00:41:59;;;;;;;8.00;4.65;;;;;;;5.90;82.12;99506.19;5097034;28;20058;-51
2021/05/03 00:44:27;;;;;;;6.72;4.45;;;;;;;5.89;81.86;99510.53;5096726;28;20051;-51
2021/05/03 00:46:55;;;;;;;5.93;4.20;;;;;;;5.90;82.35;99509.66;5097521;28;20051;-52
2021/05/03 00:49:21;;;;;;;7.85;4.75;;;;;;;5.90;82.47;99519.19;5097464;28;20040;-51
2021/05/03 00:51:47;;;;;;;5.28;3.75;;;;;;;5.89;82.40;99520.09;5097724;28;20123;-51
2021/05/03 00:54:12;;;;;;;9.50;5.65;;;;;;;5.93;82.55;99514.00;5097508;28;20465;-51
2021/05/03 00:56:38;;;;;;;5.88;4.45;;;;;;;5.95;82.28;99520.91;5096844;28;20048;-51
2021/05/03 00:59:04;;;;;;;9.35;4.63;;;;;;;5.98;82.07;99520.00;5097757;28;20443;-51
2021/05/03 01:01:29;;;;;;;4.45;3.30;;;;;;;5.95;82.10;99512.25;5097681;28;20052;-51
2021/05/03 01:03:55;;;;;;;4.05;3.20;;;;;;;5.88;81.73;99518.34;5096713;28;20052;-51
2021/05/03 01:06:21;;;;;;;5.85;3.60;;;;;;;5.88;81.71;99514.00;5097771;28;20059;-51
2021/05/03 01:08:47;;;;;;;5.72;4.15;;;;;;;5.82;82.52;99514.94;5096634;28;20056;-51
2021/05/03 01:11:13;;;;;;;5.75;3.65;;;;;;;5.79;82.55;99514.13;5097488;28;20044;-51
2021/05/03 01:13:39;;;;;;;5.97;3.50;;;;;;;5.82;82.70;99514.94;5097106;28;20135;-51
2021/05/03 01:16:05;;;;;;;8.07;4.20;;;;;;;5.84;82.50;99514.91;5097121;28;20050;-51
2021/05/03 01:18:35;;;;;;;5.10;3.38;;;;;;;5.80;82.50;99518.44;5097350;28;20048;-51
2021/05/03 01:21:00;;;;;;;4.22;3.47;;;;;;;5.84;82.26;99513.16;5097019;28;20055;-51
2021/05/03 01:23:26;;;;;;;6.13;3.50;;;;;;;5.86;82.36;99514.03;5096795;28;20060;-51
2021/05/03 01:25:52;;;;;;;8.88;3.38;;;;;;;5.82;82.31;99517.53;5096348;28;20059;-51
2021/05/03 01:28:18;;;;;;;4.53;3.42;;;;;;;5.83;82.75;99516.66;5096863;28;20060;-51
2021/05/03 01:30:44;;;;;;;7.70;4.80;;;;;;;5.85;82.44;99519.25;5097069;28;20040;-51
2021/05/03 01:33:11;;;;;;;6.30;3.55;;;;;;;5.84;82.42;99510.56;5097078;28;20059;-51
2021/05/03 01:35:37;;;;;;;3.60;2.88;;;;;;;5.83;82.49;99521.00;5095928;28;20044;-51
2021/05/03 01:38:04;;;;;;;6.00;3.50;;;;;;;5.85;82.39;99519.25;5096762;28;20058;-52
2021/05/03 01:40:31;;;;;;;5.80;3.67;;;;;;;5.84;82.08;99520.97;5096970;28;20048;-51
2021/05/03 01:43:08;;;;;;;3.53;2.85;;;;;;;5.80;82.57;99518.44;5095717;28;20064;-51
2021/05/03 01:45:33;;;;;;;3.80;2.97;;;;;;;5.72;83.02;99512.44;5096572;28;20048;-51
2021/05/03 01:47:59;;;;;;;3.30;2.20;;;;;;;5.71;82.87;99496.00;5095653;28;20337;-52
2021/05/03 01:50:25;;;;;;;2.97;2.35;;;;;;;5.73;82.88;99512.44;5095839;28;20058;-51
2021/05/03 01:52:51;;;;;;;3.53;2.45;;;;;;;5.78;82.97;99508.03;5079081;28;20379;-51
2021/05/03 01:55:17;;;;;;;3.97;2.90;;;;;;;5.83;82.64;99510.59;5095855;28;20052;-51
2021/05/03 01:57:43;;;;;;;3.10;2.53;;;;;;;5.85;82.52;99504.53;5095823;28;20105;-51
2021/05/03 02:00:09;;;;;;;2.83;1.90;;;;;;;5.91;82.57;99507.91;5096669;28;20066;-51
2021/05/03 02:02:35;;;;;;;3.85;2.55;;;;;;;5.95;82.60;99509.66;5096646;28;20082;-51
2021/05/03 02:05:01;;;;;;;5.00;2.40;;;;;;;5.97;82.37;99503.53;5095338;28;20516;-51
2021/05/03 02:07:26;;;;;;;6.05;3.78;;;;;;;5.99;82.45;99500.94;5096178;28;20076;-51
2021/05/03 02:09:52;;;;;;;7.40;4.70;;;;;;;6.02;83.02;99509.56;5096375;28;20132;-51
2021/05/03 02:12:18;;;;;;;4.57;3.30;;;;;;;6.06;82.34;99507.78;5095559;28;20444;-51
2021/05/03 02:14:43;;;;;;;5.20;2.67;;;;;;;6.08;82.40;99503.44;5096112;28;20052;-51
2021/05/03 02:17:09;;;;;;;2.50;2.15;;;;;;;6.09;82.12;99511.19;5096372;28;20043;-52
2021/05/03 02:19:35;;;;;;;3.90;2.78;;;;;;;6.11;82.27;99508.59;5096605;28;20052;-52
2021/05/03 02:22:01;;;;;;;2.60;2.30;;;;;;;6.14;82.44;99510.28;5095791;28;20048;-51
2021/05/03 02:24:27;;;;;;;5.10;3.13;;;;;;;6.13;82.24;99509.44;5096341;28;20052;-52
2021/05/03 02:26:53;;;;;;;3.50;2.50;;;;;;;6.11;82.22;99519.00;5096519;28;20117;-51
2021/05/03 02:29:19;;;;;;;3.65;2.70;;;;;;;6.09;82.70;99523.34;5096139;28;20148;-51
2021/05/03 02:31:44;;;;;;;3.67;2.58;;;;;;;6.03;82.91;99516.47;5096149;28;20040;-52
2021/05/03 02:34:10;;;;;;;5.03;2.47;;;;;;;6.03;83.21;99521.66;5095933;28;20051;-51
2021/05/03 02:36:36;;;;;;;4.72;2.30;;;;;;;6.05;83.27;99516.47;5096112;28;20052;-51
2021/05/03 02:39:02;;;;;;;4.10;1.95;;;;;;;6.04;83.42;99523.38;5095840;28;20056;-51
2021/05/03 02:41:28;;;;;;;4.32;2.67;;;;;;;6.04;83.51;99525.97;5095860;28;20052;-52
2021/05/03 02:43:53;;;;;;;3.47;2.88;;;;;;;6.05;83.38;99521.66;5078120;28;20088;-51
2021/05/03 02:46:19;;;;;;;4.03;2.15;;;;;;;6.05;83.42;99532.94;5095352;28;20416;-51
2021/05/03 02:48:45;;;;;;;3.90;2.47;;;;;;;6.01;83.59;99528.66;5095921;28;20048;-52
2021/05/03 02:51:11;;;;;;;3.97;1.77;;;;;;;6.01;83.38;99525.16;5096053;28;20314;-51
2021/05/03 02:53:36;;;;;;;5.55;2.25;;;;;;;5.91;83.82;99533.91;5095827;28;20108;-52
2021/05/03 02:56:02;;;;;;;2.08;1.83;;;;;;;5.99;84.03;99535.59;5096072;28;20044;-52
2021/05/03 02:58:28;;;;;;;2.22;2.00;;;;;;;5.97;83.81;99537.34;5095978;28;20424;-51
2021/05/03 03:00:54;;;;;;;2.03;1.77;;;;;;;6.00;83.79;99534.69;5099568;28;20068;-51
2021/05/03 03:03:19;;;;;;;2.33;1.77;;;;;;;6.04;83.30;99536.38;5099789;28;20043;-51
2021/05/03 03:05:45;;;;;;;1.67;1.50;;;;;;;5.99;82.92;99538.19;5099610;28;20352;-52
2021/05/03 03:08:11;;;;;;;2.75;1.63;;;;;;;5.85;82.38;99538.31;5099486;28;20100;-52
2021/05/03 03:10:37;;;;;;;1.38;1.02;;;;;;;5.77;82.20;99537.50;5099401;28;20044;-52
2021/05/03 03:13:04;;;;;;;3.55;1.02;;;;;;;5.81;82.55;99540.94;5099651;28;20052;-51
2021/05/03 03:15:33;;;;;;;2.20;1.27;;;;;;;5.80;82.54;99542.69;5099400;28;20040;-51
2021/05/03 03:17:59;;;;;;;2.65;1.30;;;;;;;5.77;82.57;99547.06;5098737;28;20097;-51
2021/05/03 03:20:25;;;;;;;3.33;1.23;;;;;;;5.75;82.70;99548.78;5099560;28;20052;-51
2021/05/03 03:22:51;;;;;;;1.98;1.27;;;;;;;5.72;82.59;99543.63;5098400;28;20513;-51
2021/05/03 03:25:17;;;;;;;1.25;0.73;;;;;;;5.72;82.27;99549.72;5098897;28;20374;-51
2021/05/03 03:27:42;;;;;;;3.38;1.80;;;;;;;5.76;82.58;99550.53;5099191;28;20040;-51
2021/05/03 03:30:10;;;;;;;1.85;1.52;;;;;;;5.77;82.15;99555.72;5099018;28;20356;-51
2021/05/03 03:32:39;;;;;;;1.67;1.17;;;;;;;5.79;82.59;99556.56;5099442;28;20135;-52
2021/05/03 03:35:05;;;;;;;1.45;1.00;;;;;;;5.73;82.23;99559.22;5098981;28;20055;-51
2021/05/03 03:37:31;;;;;;;1.25;0.95;;;;;;;5.74;81.83;99560.06;5099018;28;20040;-51
2021/05/03 03:39:57;;;;;;;1.25;0.90;;;;;;;5.71;81.75;99570.50;5098938;28;20074;-51
2021/05/03 03:42:22;;;;;;;1.13;0.95;;;;;;;5.67;81.86;99568.81;5099008;28;20040;-51
2021/05/03 03:44:48;;;;;;;1.02;0.85;;;;;;;5.63;81.67;99567.97;5099164;28;20052;-52
2021/05/03 03:47:14;;;;;;;1.55;1.20;;;;;;;5.58;82.14;99577.53;5098944;28;20050;-51
2021/05/03 03:49:40;;;;;;;2.03;1.17;;;;;;;5.57;82.22;99579.28;5098606;28;20058;-51
2021/05/03 03:52:05;;;;;;;1.17;1.00;;;;;;;5.62;82.13;99585.31;5098324;28;20073;-52
2021/05/03 03:54:31;;;;;;;1.55;0.93;;;;;;;5.62;82.27;99592.22;5098322;28;20405;-51
2021/05/03 03:56:57;;;;;;;2.92;1.40;;;;;;;5.60;82.58;99588.78;5097759;28;20050;-51
2021/05/03 03:59:23;;;;;;;3.33;1.42;;;;;;;5.60;82.54;99596.59;5098607;28;20055;-51
2021/05/03 04:01:49;;;;;;;2.00;1.27;;;;;;;5.61;82.96;99593.97;5098801;28;20139;-51
2021/05/03 04:04:20;;;;;;;1.67;1.02;;;;;;;5.63;82.88;99604.34;5097863;28;20052;-51
2021/05/03 04:07:00;;;;;;;1.65;1.42;;;;;;;5.62;83.17;99608.69;5098731;28;20056;-51
2021/05/03 04:23:23;;;;;;;2.20;1.20;;;;;;;5.40;83.87;99609.72;5098118;28;20056;-51
2021/05/03 04:25:50;;;;;;;1.48;1.05;;;;;;;5.42;83.48;99614.91;5098384;28;20044;-51
2021/05/03 04:28:15;;;;;;;1.27;1.10;;;;;;;5.45;83.15;99615.72;5098004;28;20364;-51
2021/05/03 04:30:41;;;;;;;1.13;0.77;;;;;;;5.42;82.60;99607.09;5098139;28;20040;-51
2021/05/03 04:33:07;;;;;;;1.05;0.95;;;;;;;5.47;83.27;99614.00;5098313;28;20093;-47
2021/05/03 04:35:33;;;;;;;1.17;1.00;;;;;;;5.54;83.32;99617.41;5064490;28;20040;-51
2021/05/03 04:37:58;;;;;;;1.10;0.98;;;;;;;5.65;83.36;99622.50;5098109;28;20174;-52
2021/05/03 04:40:24;;;;;;;0.80;0.75;;;;;;;5.60;83.17;99618.22;5098055;28;20326;-51
2021/05/03 04:42:50;;;;;;;1.50;0.63;;;;;;;5.61;83.50;99629.47;5096841;28;20452;-51
2021/05/03 04:45:16;;;;;;;1.30;0.93;;;;;;;5.62;83.63;99631.19;5097999;28;20048;-51
2021/05/03 04:47:42;;;;;;;3.45;1.42;;;;;;;5.65;83.90;99633.75;5097633;28;20052;-51
2021/05/03 04:50:10;;;;;;;9.48;5.53;;;;;;;5.62;83.77;99633.78;5097579;28;20093;-51
2021/05/03 04:52:36;;;;;;;4.80;3.40;;;;;;;5.62;84.41;99633.78;5097636;28;20036;-51
2021/05/03 04:55:03;;;;;;;35.95;22.52;;;;;;;5.61;84.40;99637.28;5097835;28;20052;-51
2021/05/03 04:57:29;;;;;;;251.80;115.75;;;;;;;5.60;84.62;99640.75;5097459;28;20044;-51
2021/05/03 04:59:54;;;;;;;219.93;100.25;;;;;;;5.61;84.90;99632.06;5097388;28;20105;-51
2021/05/03 05:02:20;;;;;;;72.13;32.35;;;;;;;5.62;84.87;99639.88;5097311;28;20402;-51
2021/05/03 05:04:46;;;;;;;156.80;59.28;;;;;;;5.67;84.87;99642.44;5097630;28;20074;-51
2021/05/03 05:07:11;;;;;;;237.90;112.03;;;;;;;5.67;84.58;99644.16;5097463;28;20048;-51
2021/05/03 05:09:37;;;;;;;27.63;13.60;;;;;;;5.72;84.34;99652.78;5097401;28;20104;-51
2021/05/03 05:12:03;;;;;;;17.77;10.60;;;;;;;5.68;84.44;99651.06;5096288;28;20044;-51
2021/05/03 05:14:29;;;;;;;4.95;2.58;;;;;;;5.75;84.30;99655.34;5096309;28;20043;-51
2021/05/03 05:16:56;;;;;;;1.80;1.55;;;;;;;5.77;84.28;99662.25;5097356;28;20052;-52
2021/05/03 05:19:22;;;;;;;1.63;1.52;;;;;;;5.80;84.38;99662.25;5096220;28;20048;-51
2021/05/03 05:21:48;;;;;;;2.35;1.27;;;;;;;5.79;84.08;99662.28;5096498;28;20460;-51
2021/05/03 05:24:14;;;;;;;1.63;1.20;;;;;;;5.84;84.29;99665.69;5096738;28;20052;-51
2021/05/03 05:26:40;;;;;;;2.40;1.10;;;;;;;5.86;84.17;99664.78;5097114;28;20046;-51
2021/05/03 05:29:06;;;;;;;3.38;1.23;;;;;;;5.89;84.29;99673.47;5097735;28;20314;-51
2021/05/03 05:31:32;;;;;;;1.33;1.17;;;;;;;5.85;84.17;99662.22;5096791;28;20043;-51
2021/05/03 05:33:58;;;;;;;1.98;1.20;;;;;;;5.98;84.17;99675.97;5097077;28;20075;-52
2021/05/03 05:36:23;;;;;;;6.07;2.92;;;;;;;5.95;84.04;99674.28;5096701;28;20047;-51
2021/05/03 05:38:49;;;;;;;7.72;3.22;;;;;;;6.01;84.04;99681.16;5096936;28;20040;-51
2021/05/03 05:41:17;;;;;;;43.60;18.45;;;;;;;5.88;84.13;99688.16;5096942;28;20048;-51
2021/05/03 05:43:43;;;;;;;14.60;5.90;;;;;;;6.00;84.15;99689.84;5096599;28;20070;-51
2021/05/03 05:46:09;;;;;;;616.25;250.43;;;;;;;6.01;84.20;99689.84;5096537;28;20036;-51
2021/05/03 05:48:36;;;;;;;247.65;102.78;;;;;;;6.04;84.46;99695.00;5095976;28;20063;-52
2021/05/03 05:51:02;;;;;;;52.85;23.70;;;;;;;6.03;84.54;99700.22;5096737;28;20127;-51
2021/05/03 05:53:30;;;;;;;119.88;67.25;;;;;;;6.01;85.04;99702.84;5097066;28;20044;-51
2021/05/03 05:55:55;;;;;;;92.75;63.08;;;;;;;6.04;85.16;99705.41;5096497;28;20105;-52
2021/05/03 05:58:21;;;;;;;10.68;7.63;;;;;;;6.08;85.03;99709.72;5096983;28;20036;-51
2021/05/03 06:00:47;;;;;;;2.80;1.77;;;;;;;6.16;84.77;99707.03;5096353;28;20048;-51
2021/05/03 06:03:13;;;;;;;1.30;1.20;;;;;;;6.18;84.50;99713.09;5096655;28;20044;-52
2021/05/03 06:05:38;;;;;;;1.95;0.90;;;;;;;6.18;84.73;99712.25;5096364;28;20114;-51
2021/05/03 06:08:04;;;;;;;1.55;1.13;;;;;;;6.24;84.58;99718.25;5096553;28;20048;-51
2021/05/03 06:10:30;;;;;;;1.35;1.08;;;;;;;6.25;84.33;99716.50;5096153;28;20440;-52
2021/05/03 06:12:56;;;;;;;1.95;1.10;;;;;;;6.26;84.92;99720.81;5096485;28;20059;-51
2021/05/03 06:15:21;;;;;;;3.03;1.77;;;;;;;6.25;84.39;99729.50;5096499;28;20100;-51
2021/05/03 06:17:47;;;;;;;3.30;2.17;;;;;;;6.32;84.35;99731.19;5096415;28;20330;-51
2021/05/03 06:20:13;;;;;;;12.98;7.07;;;;;;;6.33;83.45;99733.75;5096053;28;20044;-52
2021/05/03 06:22:39;;;;;;;25.88;14.27;;;;;;;6.30;83.68;99731.22;5095465;28;20364;-51
2021/05/03 06:25:07;;;;;;;49.55;30.75;;;;;;;6.29;83.51;99737.25;5096073;28;20051;-51
2021/05/03 06:27:32;;;;;;;253.50;128.00;;;;;;;6.37;83.11;99746.72;5095430;28;20059;-51
2021/05/03 06:29:58;;;;;;;204.35;103.85;;;;;;;6.31;82.80;99740.72;5096486;28;20036;-51
2021/05/03 06:32:24;;;;;;;152.43;79.95;;;;;;;6.38;83.24;99753.69;5095198;28;20044;-51
2021/05/03 06:34:50;;;;;;;98.10;56.45;;;;;;;6.42;83.08;99758.84;5097917;28;20080;-51
2021/05/03 06:37:16;;;;;;;49.20;35.53;;;;;;;6.45;83.21;99758.81;5100083;28;20452;-51
2021/05/03 06:39:41;;;;;;;8.63;7.32;;;;;;;6.45;82.93;99755.34;5100378;28;20048;-51
2021/05/03 06:42:07;;;;;;;5.30;2.50;;;;;;;6.40;82.65;99760.59;5099377;28;20040;-51
2021/05/03 06:44:36;;;;;;;2.20;1.38;;;;;;;6.42;82.72;99766.63;5100325;28;20102;-52
2021/05/03 06:47:03;;;;;;;2.30;1.50;;;;;;;6.43;81.91;99762.28;5100000;28;20572;-51
2021/05/03 06:49:28;;;;;;;1.40;1.25;;;;;;;6.43;81.88;99765.75;5099911;28;20360;-51
2021/05/03 06:51:54;;;;;;;11.98;6.40;;;;;;;6.42;81.38;99776.19;5099805;28;20056;-51
2021/05/03 06:54:20;;;;;;;7.32;4.18;;;;;;;6.31;81.75;99778.88;5099026;28;20036;-51
2021/05/03 06:56:46;;;;;;;3.75;2.60;;;;;;;6.31;82.00;99784.09;5100646;28;20059;-51
2021/05/03 06:59:12;;;;;;;17.70;11.05;;;;;;;6.35;82.45;99785.78;5100053;28;20371;-51
2021/05/03 07:01:38;;;;;;;10.73;7.15;;;;;;;6.39;82.21;99789.22;5099983;28;20059;-51
2021/05/03 07:04:03;;;;;;;17.58;10.95;;;;;;;6.43;82.39;99794.38;5099693;28;20047;-51
2021/05/03 07:06:30;;;;;;;46.80;29.15;;;;;;;6.43;82.08;99793.50;5099523;28;20071;-51
2021/05/03 07:08:55;;;;;;;24.00;15.63;;;;;;;6.44;81.67;99803.94;5098995;28;20419;-51
2021/05/03 07:11:23;;;;;;;30.77;19.30;;;;;;;6.38;81.75;99803.13;5098793;28;20048;-51
2021/05/03 07:13:49;;;;;;;19.40;11.77;;;;;;;6.37;81.94;99807.47;5099746;28;20086;-51
2021/05/03 07:16:14;;;;;;;12.95;10.60;;;;;;;6.30;81.62;99801.44;5098812;28;20470;-51
2021/05/03 07:18:40;;;;;;;25.48;16.00;;;;;;;6.31;81.44;99810.97;5099686;28;20432;-51
2021/05/03 07:21:06;;;;;;;27.40;13.30;;;;;;;6.33;80.56;99819.59;5099641;28;20345;-51
2021/05/03 07:23:32;;;;;;;9.13;5.10;;;;;;;6.39;80.33;99816.09;5098200;28;20444;-51
2021/05/03 07:25:58;;;;;;;10.00;6.53;;;;;;;6.31;79.94;99816.16;5099525;28;20048;-51
2021/05/03 07:28:24;;;;;;;8.02;5.45;;;;;;;6.34;79.68;99820.50;5099479;28;20051;-51
2021/05/03 07:30:56;;;;;;;2.28;1.30;;;;;;;6.28;80.12;99812.72;5099077;28;20040;-52
2021/05/03 07:33:23;;;;;;;4.88;3.08;;;;;;;6.45;81.18;99816.06;5099728;28;20432;-51
2021/05/03 07:35:49;;;;;;;5.28;3.72;;;;;;;6.59;80.49;99817.66;5099052;28;20048;-51
2021/05/03 07:38:14;;;;;;;3.67;2.67;;;;;;;6.59;79.83;99812.47;5098420;28;20059;-51
2021/05/03 07:40:40;;;;;;;10.80;5.15;;;;;;;6.60;79.84;99822.00;5098383;28;20127;-51
2021/05/03 07:43:06;;;;;;;13.15;4.32;;;;;;;6.52;80.31;99833.34;5098933;28;20044;-52
2021/05/03 07:45:32;;;;;;;24.60;10.30;;;;;;;6.41;80.02;99836.91;5097435;28;20078;-51
2021/05/03 07:47:57;;;;;;;15.40;6.68;;;;;;;6.49;80.66;99835.97;5099063;28;20047;-51
2021/05/03 07:50:23;;;;;;;17.33;7.30;;;;;;;6.39;79.95;99847.31;5098102;28;20420;-51
2021/05/03 07:52:49;;;;;;;9.43;3.80;;;;;;;6.39;80.05;99843.84;5098969;28;20390;-51
2021/05/03 07:55:16;;;;;;;3.22;1.58;;;;;;;6.28;79.34;99851.75;5098976;28;20056;-51
2021/05/03 07:57:42;;;;;;;16.25;8.15;;;;;;;6.16;79.98;99855.28;5098896;28;20051;-51
2021/05/03 08:00:08;;;;;;;18.05;7.97;;;;;;;6.25;80.50;99852.63;5098527;28;20071;-51
2021/05/03 08:02:35;;;;;;;11.85;5.90;;;;;;;6.22;79.86;99849.19;5097974;28;20044;-51
2021/05/03 08:05:01;;;;;;;8.93;4.10;;;;;;;6.16;79.70;99862.22;5098754;28;20109;-52
2021/05/03 08:07:26;;;;;;;8.60;5.55;;;;;;;6.06;80.21;99858.81;5098706;28;20120;-51
2021/05/03 08:09:52;;;;;;;15.85;8.70;;;;;;;6.11;80.78;99863.97;5097733;28;20132;-51
2021/05/03 08:12:18;;;;;;;19.58;13.65;;;;;;;6.11;81.00;99864.88;5098378;28;20440;-51
2021/05/03 08:14:44;;;;;;;18.55;16.50;;;;;;;6.17;81.31;99861.34;5098577;28;20063;-51
2021/05/03 08:17:13;;;;;;;7.05;6.35;;;;;;;6.22;81.05;99865.66;5098529;28;20351;-51
2021/05/03 08:19:39;;;;;;;7.15;6.55;;;;;;;6.29;80.54;99880.34;5098532;28;20105;-51
2021/05/03 08:22:05;;;;;;;7.65;6.95;;;;;;;6.40;81.19;99876.78;5097401;28;20043;-51
2021/05/03 08:24:32;;;;;;;14.98;11.30;;;;;;;6.37;80.90;99876.81;5098208;28;20048;-51
2021/05/03 08:27:01;;;;;;;7.47;6.60;;;;;;;6.39;81.01;99883.75;5098390;28;20055;-51
2021/05/03 08:29:27;;;;;;;9.25;7.32;;;;;;;6.29;80.81;99871.69;5097384;28;20063;-51
2021/05/03 08:31:54;;;;;;;9.98;8.02;;;;;;;6.32;80.95;99879.47;5097080;28;20048;-51
2021/05/03 08:34:20;;;;;;;6.68;4.68;;;;;;;6.44;80.72;99889.78;5097151;28;20048;-51
2021/05/03 08:36:45;;;;;;;11.88;7.22;;;;;;;6.38;81.12;99897.63;5098151;28;20499;-51
2021/05/03 08:39:11;;;;;;;120.68;57.38;;;;;;;6.29;81.78;99895.94;5098426;28;20075;-51
2021/05/03 08:41:38;;;;;;;45.70;24.48;;;;;;;6.43;81.30;99895.00;5097913;28;20429;-51
2021/05/03 08:44:04;;;;;;;57.97;35.13;;;;;;;6.41;81.06;99891.56;5097792;28;20047;-51
2021/05/03 08:46:32;;;;;;;73.13;41.75;;;;;;;6.36;81.65;99888.09;5097561;28;20044;-51
2021/05/03 08:49:05;;;;;;;32.45;17.13;;;;;;;6.48;81.38;99893.22;5097367;28;20044;-51
2021/05/03 08:56:34;;;;;;;28.90;22.65;;;;;;;6.42;81.51;99908.88;5097034;28;20044;-51
2021/05/03 08:59:00;;;;;;;42.33;24.42;;;;;;;6.32;82.82;99911.53;5097140;28;20133;-51
2021/05/03 09:01:26;;;;;;;23.00;10.43;;;;;;;6.40;82.19;99919.31;5096857;28;20052;-51
2021/05/03 09:03:53;;;;;;;25.88;13.95;;;;;;;6.45;81.83;99924.47;5095421;28;20216;-51
2021/05/03 09:06:19;;;;;;;16.25;8.60;;;;;;;6.47;81.68;99910.59;5096769;28;20197;-51
2021/05/03 09:08:45;;;;;;;34.67;18.02;;;;;;;6.54;82.26;99912.28;5096451;28;20517;-51
2021/05/03 09:11:15;;;;;;;80.28;44.20;;;;;;;6.61;81.15;99907.03;5097127;28;20433;-51
2021/05/03 09:13:41;;;;;;;57.75;41.42;;;;;;;6.77;81.30;99906.03;5096624;28;20055;-52
2021/05/03 09:16:14;;;;;;;29.42;22.38;;;;;;;6.99;82.12;99906.72;5098199;28;20062;-51
2021/05/03 09:18:40;;;;;;;54.95;38.67;;;;;;;7.09;81.48;99907.50;5097427;28;20059;-51
2021/05/03 09:21:08;;;;;;;36.28;26.20;;;;;;;7.16;81.09;99903.94;5096241;28;20048;-51
2021/05/03 09:23:57;;;;;;;31.88;21.77;;;;;;;7.39;81.01;99901.97;5079251;28;20372;-51
2021/05/03 09:26:33;;;;;;;12.57;7.70;;;;;;;7.42;80.37;99888.06;5097625;28;20040;-51
2021/05/03 09:28:59;;;;;;;19.55;11.73;;;;;;;7.64;81.08;99896.50;5097426;28;20047;-51
2021/05/03 09:31:25;;;;;;;39.42;21.63;;;;;;;7.73;80.60;99893.75;5097060;28;20105;-52
2021/05/03 09:33:51;;;;;;;11.73;7.20;;;;;;;7.87;79.81;99896.22;5097084;28;20356;-52
2021/05/03 09:36:17;;;;;;;11.68;7.70;;;;;;;7.95;78.93;99896.97;5097084;28;20052;-51
2021/05/03 09:38:46;;;;;;;5.40;4.68;;;;;;;8.07;78.71;99896.81;5062696;28;20048;-52
2021/05/03 09:41:19;;;;;;;6.82;4.43;;;;;;;8.16;77.81;99899.31;5096948;28;20047;-52
2021/05/03 09:43:55;;;;;;;3.75;3.35;;;;;;;8.15;77.74;99889.72;5096092;28;20048;-52
2021/05/03 09:46:29;;;;;;;4.72;3.42;;;;;;;8.23;77.24;99887.03;5096667;28;20444;-52
2021/05/03 09:49:06;;;;;;;11.48;8.45;;;;;;;8.42;77.55;99896.34;5079600;28;20130;-52
2021/05/03 09:51:41;;;;;;;19.65;12.27;;;;;;;8.51;77.80;99900.56;5095994;28;20379;-52
2021/05/03 09:54:06;;;;;;;31.73;22.98;;;;;;;8.73;76.38;99900.22;5095713;28;20364;-52
2021/05/03 09:56:47;;;;;;;13.27;9.05;;;;;;;8.79;76.52;99901.00;5096802;28;20048;-52
2021/05/03 09:59:41;;;;;;;50.35;23.58;;;;;;;8.94;76.74;99899.88;5096815;28;20047;-52
2021/05/03 10:02:21;;;;;;;16.48;9.48;;;;;;;9.19;76.77;99895.06;5079005;28;20067;-52
2021/05/03 10:05:20;;;;;;;12.45;5.82;;;;;;;9.42;75.30;99899.88;5096694;28;20113;-52
2021/05/03 10:07:55;;;;;;;11.90;7.60;;;;;;;9.71;74.36;99898.44;5096769;28;20146;-52
2021/05/03 10:10:34;;;;;;;15.57;7.70;;;;;;;9.99;73.60;99898.75;5095724;28;20048;-52
2021/05/03 10:13:00;;;;;;;16.48;6.70;;;;;;;10.21;72.96;99901.78;5095844;28;20044;-52
2021/05/03 10:15:26;;;;;;;5.13;2.92;;;;;;;10.37;70.85;99892.72;5095674;28;20359;-52
2021/05/03 10:17:51;;;;;;;4.60;3.45;;;;;;;10.47;69.31;99907.31;5096213;28;20058;-53
2021/05/03 10:20:20;;;;;;;7.15;3.22;;;;;;;10.62;70.22;99900.84;5096178;28;20048;-53
2021/05/03 10:22:51;;;;;;;10.43;4.22;;;;;;;10.90;67.81;99901.03;5095961;28;20140;-53
2021/05/03 10:25:17;;;;;;;2.70;1.50;;;;;;;10.94;64.75;99896.59;5095663;28;20046;-53
2021/05/03 10:27:46;;;;;;;4.85;2.83;;;;;;;10.94;64.34;99897.44;5095508;28;20043;-53
2021/05/03 10:30:19;;;;;;;4.63;1.55;;;;;;;10.98;62.95;99904.34;5096306;28;20129;-53
2021/05/03 10:33:03;;;;;;;;;;;;;;;10.80;63.07;99894.31;5096980;28;20093;-53
2021/05/03 10:35:33;;;;;;;19.05;9.25;;;;;;;11.02;62.74;99897.25;5095185;28;20320;-53
2021/05/03 10:37:59;;;;;;;21.10;8.57;;;;;;;11.03;61.74;99908.59;5096290;28;20055;-53
2021/05/03 10:40:26;;;;;;;8.25;3.30;;;;;;;10.97;59.93;99910.47;5095429;28;20063;-53
2021/05/03 10:43:09;;;;;;;6.60;3.42;;;;;;;11.04;61.51;99912.94;5096262;28;20402;-53
2021/05/03 10:46:06;;;;;;;6.90;2.35;;;;;;;11.15;61.77;99908.31;5096274;28;20052;-53
2021/05/03 10:51:11;;;;;;;5.50;2.50;;;;;;;10.94;61.69;99918.41;5096405;28;20478;-53
2021/05/03 10:53:42;;;;;;;6.28;1.92;;;;;;;10.95;60.19;99914.03;5095300;28;20052;-52
2021/05/03 10:56:10;;;;;;;7.47;4.05;;;;;;;10.69;60.96;99926.03;5096159;28;20121;-53
2021/05/03 10:58:54;;;;;;;8.35;4.63;;;;;;;10.48;63.12;99924.75;5095223;28;20114;-53
2021/05/03 11:01:20;;;;;;;8.80;5.65;;;;;;;10.18;63.69;99918.41;5095341;28;20050;-52
2021/05/03 11:03:55;;;;;;;3.53;1.98;;;;;;;10.10;62.36;99927.31;5095535;28;20055;-53
2021/05/03 11:06:36;;;;;;;7.38;3.20;;;;;;;9.95;63.58;99931.97;5095626;28;20482;-52
2021/05/03 11:09:34;;;;;;;5.80;2.90;;;;;;;9.87;65.98;99933.00;5095898;28;20040;-53
2021/05/03 11:12:06;;;;;;;4.40;2.60;;;;;;;9.72;67.07;99928.97;5095986;28;20059;-52
2021/05/03 11:14:38;;;;;;;2.15;1.10;;;;;;;9.72;63.28;99918.50;5095996;28;20052;-52
2021/05/03 11:22:25;;;;;;;2.80;0.98;;;;;;;10.14;61.95;99924.59;5099443;28;20094;-53
2021/05/03 11:27:31;;;;;;;1.25;0.73;;;;;;;10.17;62.77;99929.78;5099553;28;20131;-53
2021/05/03 11:30:07;;;;;;;4.57;2.97;;;;;;;10.10;63.08;99932.53;5099329;28;20056;-53
2021/05/03 11:32:37;;;;;;;6.25;1.70;;;;;;;10.02;64.66;99944.03;5099535;28;20126;-54
2021/05/03 11:36:01;;;;;;;3.40;1.88;;;;;;;9.96;64.11;99935.44;5099402;28;20075;-53
2021/05/03 11:38:14;;;;;;;3.47;1.98;;;;;;;9.71;65.06;99938.53;5074710;28;20341;-53
2021/05/03 11:41:14;;;;;;;4.38;2.65;;;;;;;9.66;65.50;99937.78;5097807;28;20051;-53
2021/05/03 11:46:33;;;;;;;6.03;3.40;;;;;;;9.64;65.57;99939.56;5095730;28;20052;-54
2021/05/03 11:49:12;;;;;;;4.78;2.58;;;;;;;9.72;66.19;99924.59;5082578;28;20044;-49
2021/05/03 11:51:46;;;;;;;5.93;3.47;;;;;;;9.87;66.47;99939.09;5088234;28;20047;-49
2021/05/03 11:54:31;;;;;;;77.15;39.88;;;;;;;9.97;65.10;99940.63;5087455;28;20744;-49
2021/05/03 11:57:02;;;;;;;118.95;64.22;;;;;;;10.06;64.75;99934.38;5087964;28;20064;-48
2021/05/03 11:59:28;;;;;;;307.52;139.57;;;;;;;10.02;65.16;99925.72;5086825;28;20043;-49
2021/05/03 12:02:02;;;;;;;83.15;37.40;;;;;;;10.14;63.52;99931.56;5087114;28;20044;-49
2021/05/03 12:04:44;;;;;;;131.38;53.35;;;;;;;10.28;62.65;99932.19;5086844;28;20105;-49
2021/05/03 12:07:36;;;;;;;234.65;100.40;;;;;;;10.46;63.41;99929.16;5086951;28;20056;-54
2021/05/03 12:10:03;;;;;;;127.13;53.63;;;;;;;10.66;63.04;99928.72;5084533;28;20044;-53
2021/05/03 12:12:36;;;;;;;145.10;70.35;;;;;;;10.82;61.92;99936.19;5086974;28;20073;-54